sensor_id;sensor_type;location;lat;lon;timestamp;P1;durP1;ratioP1;P2;durP2;ratioP2
65189;SDS011;51777;53.570;9.984;2023-04-24T00:00:00;5.88;;;4.60;;
65189;SDS011;51777;53.570;9.984;2023-04-24T00:02:26;5.50;;;4.93;;
65189;SDS011;51777;53.570;9.984;2023-04-24T00:04:52;8.02;;;5.43;;
65189;SDS011;51777;53.570;9.984;2023-04-24T00:07:17;9.88;;;5.00;;
65189;SDS011;51777;53.570;9.984;2023-04-24T00:09:44;7.85;;;5.50;;
65189;SDS011;51777;53.570;9.984;2023-04-24T00:12:10;7.20;;;5.32;;
65189;SDS011;51777;53.570;9.984;2023-04-24T00:14:36;6.93;;;4.60;;
65189;SDS011;51777;53.570;9.984;2023-04-24T00:17:01;9.70;;;5.50;;
65189;SDS011;51777;53.570;9.984;2023-04-24T00:19:27;7.55;;;4.97;;
65189;SDS011;51777;53.570;9.984;2023-04-24T00:21:53;5.82;;;5.00;;
65189;SDS011;51777;53.570;9.984;2023-04-24T00:24:19;6.10;;;4.40;;
65189;SDS011;51777;53.570;9.984;2023-04-24T00:26:45;6.90;;;4.60;;
65189;SDS011;51777;53.570;9.984;2023-04-24T00:29:11;5.75;;;4.57;;
65189;SDS011;51777;53.570;9.984;2023-04-24T00:31:36;5.55;;;4.57;;
65189;SDS011;51777;53.570;9.984;2023-04-24T00:34:02;5.82;;;4.80;;
65189;SDS011;51777;53.570;9.984;2023-04-24T00:36:28;5.05;;;4.55;;
65189;SDS011;51777;53.570;9.984;2023-04-24T00:38:54;5.18;;;4.55;;
65189;SDS011;51777;53.570;9.984;2023-04-24T00:41:20;6.40;;;4.07;;
65189;SDS011;51777;53.570;9.984;2023-04-24T00:43:46;6.68;;;4.13;;
65189;SDS011;51777;53.570;9.984;2023-04-24T00:46:12;5.50;;;4.60;;
65189;SDS011;51777;53.570;9.984;2023-04-24T00:48:38;6.38;;;4.57;;
65189;SDS011;51777;53.570;9.984;2023-04-24T00:51:04;5.93;;;4.55;;
65189;SDS011;51777;53.570;9.984;2023-04-24T00:53:30;4.80;;;3.88;;
65189;SDS011;51777;53.570;9.984;2023-04-24T00:55:55;5.90;;;4.50;;
65189;SDS011;51777;53.570;9.984;2023-04-24T00:58:21;7.75;;;4.55;;
65189;SDS011;51777;53.570;9.984;2023-04-24T01:00:48;5.25;;;4.70;;
65189;SDS011;51777;53.570;9.984;2023-04-24T01:03:15;5.10;;;4.60;;
65189;SDS011;51777;53.570;9.984;2023-04-24T01:05:41;4.55;;;4.10;;
65189;SDS011;51777;53.570;9.984;2023-04-24T01:08:07;4.68;;;4.20;;
65189;SDS011;51777;53.570;9.984;2023-04-24T01:10:33;6.45;;;4.40;;
65189;SDS011;51777;53.570;9.984;2023-04-24T01:12:59;5.63;;;4.00;;
65189;SDS011;51777;53.570;9.984;2023-04-24T01:15:25;5.00;;;4.50;;
65189;SDS011;51777;53.570;9.984;2023-04-24T01:17:50;6.65;;;4.20;;
65189;SDS011;51777;53.570;9.984;2023-04-24T01:20:16;4.65;;;3.40;;
65189;SDS011;51777;53.570;9.984;2023-04-24T01:22:42;7.65;;;4.22;;
65189;SDS011;51777;53.570;9.984;2023-04-24T01:25:07;4.95;;;3.97;;
65189;SDS011;51777;53.570;9.984;2023-04-24T01:27:33;5.95;;;3.88;;
65189;SDS011;51777;53.570;9.984;2023-04-24T01:29:59;4.03;;;3.60;;
65189;SDS011;51777;53.570;9.984;2023-04-24T01:32:25;3.80;;;3.50;;
65189;SDS011;51777;53.570;9.984;2023-04-24T01:34:51;3.95;;;3.50;;
65189;SDS011;51777;53.570;9.984;2023-04-24T01:37:16;3.30;;;3.03;;
65189;SDS011;51777;53.570;9.984;2023-04-24T01:39:42;5.32;;;3.55;;
65189;SDS011;51777;53.570;9.984;2023-04-24T01:42:08;4.78;;;3.50;;
65189;SDS011;51777;53.570;9.984;2023-04-24T01:44:34;4.88;;;3.72;;
65189;SDS011;51777;53.570;9.984;2023-04-24T01:47:00;7.07;;;3.25;;
65189;SDS011;51777;53.570;9.984;2023-04-24T01:49:26;4.13;;;3.20;;
65189;SDS011;51777;53.570;9.984;2023-04-24T01:51:52;3.92;;;3.50;;
65189;SDS011;51777;53.570;9.984;2023-04-24T01:54:17;7.10;;;3.33;;
65189;SDS011;51777;53.570;9.984;2023-04-24T01:56:43;3.83;;;3.05;;
65189;SDS011;51777;53.570;9.984;2023-04-24T01:59:09;4.47;;;3.20;;
65189;SDS011;51777;53.570;9.984;2023-04-24T02:01:36;3.70;;;3.15;;
65189;SDS011;51777;53.570;9.984;2023-04-24T02:04:01;3.53;;;2.80;;
65189;SDS011;51777;53.570;9.984;2023-04-24T02:06:27;3.60;;;2.65;;
65189;SDS011;51777;53.570;9.984;2023-04-24T02:08:53;3.35;;;2.15;;
65189;SDS011;51777;53.570;9.984;2023-04-24T02:11:18;2.72;;;2.20;;
65189;SDS011;51777;53.570;9.984;2023-04-24T02:13:44;4.35;;;2.47;;
65189;SDS011;51777;53.570;9.984;2023-04-24T02:16:09;4.85;;;2.30;;
65189;SDS011;51777;53.570;9.984;2023-04-24T02:18:35;1.95;;;1.80;;
65189;SDS011;51777;53.570;9.984;2023-04-24T02:21:00;2.33;;;2.13;;
65189;SDS011;51777;53.570;9.984;2023-04-24T02:23:26;3.03;;;2.05;;
65189;SDS011;51777;53.570;9.984;2023-04-24T02:25:52;2.30;;;2.10;;
65189;SDS011;51777;53.570;9.984;2023-04-24T02:28:18;3.20;;;2.10;;
65189;SDS011;51777;53.570;9.984;2023-04-24T02:30:44;2.95;;;2.20;;
65189;SDS011;51777;53.570;9.984;2023-04-24T02:33:09;3.28;;;2.13;;
65189;SDS011;51777;53.570;9.984;2023-04-24T02:35:34;2.28;;;2.05;;
65189;SDS011;51777;53.570;9.984;2023-04-24T02:38:00;3.47;;;2.00;;
65189;SDS011;51777;53.570;9.984;2023-04-24T02:40:25;2.50;;;2.30;;
65189;SDS011;51777;53.570;9.984;2023-04-24T02:42:51;3.75;;;2.30;;
65189;SDS011;51777;53.570;9.984;2023-04-24T02:45:16;2.50;;;2.30;;
65189;SDS011;51777;53.570;9.984;2023-04-24T02:47:41;3.10;;;2.10;;
65189;SDS011;51777;53.570;9.984;2023-04-24T02:50:07;3.35;;;2.08;;
65189;SDS011;51777;53.570;9.984;2023-04-24T02:52:32;2.08;;;1.98;;
65189;SDS011;51777;53.570;9.984;2023-04-24T02:54:58;2.30;;;2.05;;
65189;SDS011;51777;53.570;9.984;2023-04-24T02:57:23;2.00;;;1.90;;
65189;SDS011;51777;53.570;9.984;2023-04-24T02:59:49;5.45;;;2.00;;
65189;SDS011;51777;53.570;9.984;2023-04-24T03:02:14;2.80;;;2.00;;
65189;SDS011;51777;53.570;9.984;2023-04-24T03:04:40;2.33;;;1.85;;
65189;SDS011;51777;53.570;9.984;2023-04-24T03:07:07;2.35;;;2.13;;
65189;SDS011;51777;53.570;9.984;2023-04-24T03:09:33;4.72;;;1.90;;
65189;SDS011;51777;53.570;9.984;2023-04-24T03:11:58;4.50;;;1.90;;
65189;SDS011;51777;53.570;9.984;2023-04-24T03:14:24;2.72;;;1.70;;
65189;SDS011;51777;53.570;9.984;2023-04-24T03:16:49;1.95;;;1.85;;
65189;SDS011;51777;53.570;9.984;2023-04-24T03:19:15;1.63;;;1.50;;
65189;SDS011;51777;53.570;9.984;2023-04-24T03:21:40;2.05;;;1.85;;
65189;SDS011;51777;53.570;9.984;2023-04-24T03:24:09;2.88;;;1.60;;
65189;SDS011;51777;53.570;9.984;2023-04-24T03:26:34;2.95;;;1.83;;
65189;SDS011;51777;53.570;9.984;2023-04-24T03:29:00;4.07;;;1.83;;
65189;SDS011;51777;53.570;9.984;2023-04-24T03:31:26;2.10;;;1.70;;
65189;SDS011;51777;53.570;9.984;2023-04-24T03:33:51;3.00;;;1.60;;
65189;SDS011;51777;53.570;9.984;2023-04-24T03:36:16;2.28;;;1.60;;
65189;SDS011;51777;53.570;9.984;2023-04-24T03:38:44;2.05;;;1.85;;
65189;SDS011;51777;53.570;9.984;2023-04-24T03:41:09;3.17;;;1.75;;
65189;SDS011;51777;53.570;9.984;2023-04-24T03:43:34;1.60;;;1.50;;
65189;SDS011;51777;53.570;9.984;2023-04-24T03:46:00;3.67;;;1.60;;
65189;SDS011;51777;53.570;9.984;2023-04-24T03:48:26;5.40;;;1.80;;
65189;SDS011;51777;53.570;9.984;2023-04-24T03:50:51;1.23;;;1.20;;
65189;SDS011;51777;53.570;9.984;2023-04-24T03:53:17;1.75;;;1.65;;
65189;SDS011;51777;53.570;9.984;2023-04-24T03:55:42;2.92;;;1.40;;
65189;SDS011;51777;53.570;9.984;2023-04-24T03:58:08;1.80;;;1.60;;
65189;SDS011;51777;53.570;9.984;2023-04-24T04:00:33;1.90;;;1.50;;
65189;SDS011;51777;53.570;9.984;2023-04-24T04:02:59;1.65;;;1.52;;
65189;SDS011;51777;53.570;9.984;2023-04-24T04:05:25;3.67;;;1.40;;
65189;SDS011;51777;53.570;9.984;2023-04-24T04:07:50;1.42;;;1.33;;
65189;SDS011;51777;53.570;9.984;2023-04-24T04:10:15;1.35;;;1.20;;
65189;SDS011;51777;53.570;9.984;2023-04-24T04:12:42;1.40;;;1.30;;
65189;SDS011;51777;53.570;9.984;2023-04-24T04:15:07;2.25;;;1.10;;
65189;SDS011;51777;53.570;9.984;2023-04-24T04:17:33;1.40;;;1.30;;
65189;SDS011;51777;53.570;9.984;2023-04-24T04:19:58;1.52;;;1.30;;
65189;SDS011;51777;53.570;9.984;2023-04-24T04:22:24;1.45;;;1.35;;
65189;SDS011;51777;53.570;9.984;2023-04-24T04:24:51;1.40;;;1.30;;
65189;SDS011;51777;53.570;9.984;2023-04-24T04:27:17;1.67;;;1.58;;
65189;SDS011;51777;53.570;9.984;2023-04-24T04:29:43;1.80;;;1.30;;
65189;SDS011;51777;53.570;9.984;2023-04-24T04:32:09;1.27;;;1.20;;
65189;SDS011;51777;53.570;9.984;2023-04-24T04:34:34;1.88;;;1.40;;
65189;SDS011;51777;53.570;9.984;2023-04-24T04:37:02;2.78;;;1.23;;
65189;SDS011;51777;53.570;9.984;2023-04-24T04:39:27;2.03;;;1.55;;
65189;SDS011;51777;53.570;9.984;2023-04-24T04:41:55;1.30;;;1.20;;
65189;SDS011;51777;53.570;9.984;2023-04-24T04:44:20;5.20;;;1.45;;
65189;SDS011;51777;53.570;9.984;2023-04-24T04:46:46;1.40;;;1.30;;
65189;SDS011;51777;53.570;9.984;2023-04-24T04:49:12;1.77;;;1.30;;
65189;SDS011;51777;53.570;9.984;2023-04-24T04:51:38;1.60;;;1.50;;
65189;SDS011;51777;53.570;9.984;2023-04-24T04:54:03;1.98;;;1.55;;
65189;SDS011;51777;53.570;9.984;2023-04-24T04:56:28;1.92;;;1.35;;
65189;SDS011;51777;53.570;9.984;2023-04-24T04:58:54;1.25;;;1.15;;
65189;SDS011;51777;53.570;9.984;2023-04-24T05:01:20;3.17;;;1.40;;
65189;SDS011;51777;53.570;9.984;2023-04-24T05:03:46;2.60;;;1.10;;
65189;SDS011;51777;53.570;9.984;2023-04-24T05:06:11;1.42;;;1.10;;
65189;SDS011;51777;53.570;9.984;2023-04-24T05:08:36;2.83;;;1.20;;
65189;SDS011;51777;53.570;9.984;2023-04-24T05:11:02;1.48;;;1.20;;
65189;SDS011;51777;53.570;9.984;2023-04-24T05:13:28;1.20;;;0.93;;
65189;SDS011;51777;53.570;9.984;2023-04-24T05:15:54;1.40;;;1.13;;
65189;SDS011;51777;53.570;9.984;2023-04-24T05:18:20;1.52;;;1.20;;
65189;SDS011;51777;53.570;9.984;2023-04-24T05:20:46;3.38;;;1.60;;
65189;SDS011;51777;53.570;9.984;2023-04-24T05:23:11;1.88;;;1.08;;
65189;SDS011;51777;53.570;9.984;2023-04-24T05:25:36;1.40;;;1.20;;
65189;SDS011;51777;53.570;9.984;2023-04-24T05:28:03;1.00;;;1.00;;
65189;SDS011;51777;53.570;9.984;2023-04-24T05:30:29;2.78;;;1.20;;
65189;SDS011;51777;53.570;9.984;2023-04-24T05:32:57;1.98;;;1.10;;
65189;SDS011;51777;53.570;9.984;2023-04-24T05:35:22;1.98;;;1.10;;
65189;SDS011;51777;53.570;9.984;2023-04-24T05:37:48;2.22;;;1.30;;
65189;SDS011;51777;53.570;9.984;2023-04-24T05:40:13;1.23;;;1.10;;
65189;SDS011;51777;53.570;9.984;2023-04-24T05:42:39;1.65;;;1.10;;
65189;SDS011;51777;53.570;9.984;2023-04-24T05:45:05;2.75;;;1.10;;
65189;SDS011;51777;53.570;9.984;2023-04-24T05:47:30;4.22;;;1.13;;
65189;SDS011;51777;53.570;9.984;2023-04-24T05:49:56;1.25;;;1.10;;
65189;SDS011;51777;53.570;9.984;2023-04-24T05:52:21;1.83;;;1.13;;
65189;SDS011;51777;53.570;9.984;2023-04-24T05:54:47;2.58;;;1.20;;
65189;SDS011;51777;53.570;9.984;2023-04-24T05:57:12;1.30;;;1.20;;
65189;SDS011;51777;53.570;9.984;2023-04-24T05:59:40;5.03;;;1.38;;
65189;SDS011;51777;53.570;9.984;2023-04-24T06:02:06;1.92;;;1.33;;
65189;SDS011;51777;53.570;9.984;2023-04-24T06:04:32;1.40;;;1.30;;
65189;SDS011;51777;53.570;9.984;2023-04-24T06:06:58;2.60;;;1.30;;
65189;SDS011;51777;53.570;9.984;2023-04-24T06:09:24;2.42;;;2.22;;
65189;SDS011;51777;53.570;9.984;2023-04-24T06:11:49;3.50;;;2.22;;
65189;SDS011;51777;53.570;9.984;2023-04-24T06:14:17;2.53;;;1.88;;
65189;SDS011;51777;53.570;9.984;2023-04-24T06:16:43;2.58;;;1.50;;
65189;SDS011;51777;53.570;9.984;2023-04-24T06:19:08;1.85;;;1.25;;
65189;SDS011;51777;53.570;9.984;2023-04-24T06:21:34;1.95;;;1.30;;
65189;SDS011;51777;53.570;9.984;2023-04-24T06:24:00;2.90;;;1.20;;
65189;SDS011;51777;53.570;9.984;2023-04-24T06:26:25;1.58;;;1.30;;
65189;SDS011;51777;53.570;9.984;2023-04-24T06:28:51;1.52;;;1.10;;
65189;SDS011;51777;53.570;9.984;2023-04-24T06:31:19;4.30;;;1.42;;
65189;SDS011;51777;53.570;9.984;2023-04-24T06:33:45;1.67;;;1.20;;
65189;SDS011;51777;53.570;9.984;2023-04-24T06:36:11;3.67;;;1.38;;
65189;SDS011;51777;53.570;9.984;2023-04-24T06:38:37;1.30;;;1.20;;
65189;SDS011;51777;53.570;9.984;2023-04-24T06:41:03;3.80;;;1.45;;
65189;SDS011;51777;53.570;9.984;2023-04-24T06:43:30;2.05;;;1.45;;
65189;SDS011;51777;53.570;9.984;2023-04-24T06:45:57;5.13;;;1.50;;
65189;SDS011;51777;53.570;9.984;2023-04-24T06:48:23;3.90;;;1.40;;
65189;SDS011;51777;53.570;9.984;2023-04-24T06:50:50;2.50;;;1.40;;
65189;SDS011;51777;53.570;9.984;2023-04-24T06:53:16;4.22;;;1.50;;
65189;SDS011;51777;53.570;9.984;2023-04-24T06:55:41;2.30;;;1.55;;
65189;SDS011;51777;53.570;9.984;2023-04-24T06:58:08;2.72;;;1.42;;
65189;SDS011;51777;53.570;9.984;2023-04-24T07:00:34;1.48;;;1.35;;
65189;SDS011;51777;53.570;9.984;2023-04-24T07:03:00;1.83;;;1.65;;
65189;SDS011;51777;53.570;9.984;2023-04-24T07:05:25;1.35;;;1.25;;
65189;SDS011;51777;53.570;9.984;2023-04-24T07:07:50;1.80;;;1.70;;
65189;SDS011;51777;53.570;9.984;2023-04-24T07:10:16;1.80;;;1.70;;
65189;SDS011;51777;53.570;9.984;2023-04-24T07:12:43;1.75;;;1.65;;
65189;SDS011;51777;53.570;9.984;2023-04-24T07:15:08;2.30;;;1.70;;
65189;SDS011;51777;53.570;9.984;2023-04-24T07:17:34;6.82;;;2.08;;
65189;SDS011;51777;53.570;9.984;2023-04-24T07:20:08;2.65;;;2.00;;
65189;SDS011;51777;53.570;9.984;2023-04-24T07:22:37;2.72;;;1.95;;
65189;SDS011;51777;53.570;9.984;2023-04-24T07:25:03;2.97;;;1.73;;
65189;SDS011;51777;53.570;9.984;2023-04-24T07:27:31;1.95;;;1.85;;
65189;SDS011;51777;53.570;9.984;2023-04-24T07:29:56;2.80;;;2.20;;
65189;SDS011;51777;53.570;9.984;2023-04-24T07:32:21;2.25;;;1.92;;
65189;SDS011;51777;53.570;9.984;2023-04-24T07:34:47;3.15;;;2.08;;
65189;SDS011;51777;53.570;9.984;2023-04-24T07:37:12;2.97;;;2.20;;
65189;SDS011;51777;53.570;9.984;2023-04-24T07:39:38;2.30;;;2.00;;
65189;SDS011;51777;53.570;9.984;2023-04-24T07:42:03;4.28;;;1.77;;
65189;SDS011;51777;53.570;9.984;2023-04-24T07:44:29;3.67;;;2.10;;
65189;SDS011;51777;53.570;9.984;2023-04-24T07:46:55;4.57;;;2.42;;
65189;SDS011;51777;53.570;9.984;2023-04-24T07:49:21;2.60;;;2.40;;
65189;SDS011;51777;53.570;9.984;2023-04-24T07:51:46;2.70;;;2.50;;
65189;SDS011;51777;53.570;9.984;2023-04-24T07:54:12;2.58;;;2.25;;
65189;SDS011;51777;53.570;9.984;2023-04-24T07:56:37;7.45;;;3.00;;
65189;SDS011;51777;53.570;9.984;2023-04-24T07:59:04;3.20;;;2.63;;
65189;SDS011;51777;53.570;9.984;2023-04-24T08:01:30;3.55;;;2.70;;
65189;SDS011;51777;53.570;9.984;2023-04-24T08:03:56;3.08;;;2.78;;
65189;SDS011;51777;53.570;9.984;2023-04-24T08:06:21;4.13;;;3.30;;
65189;SDS011;51777;53.570;9.984;2023-04-24T08:08:47;2.95;;;2.63;;
65189;SDS011;51777;53.570;9.984;2023-04-24T08:11:13;4.00;;;2.70;;
65189;SDS011;51777;53.570;9.984;2023-04-24T08:13:38;4.50;;;2.85;;
65189;SDS011;51777;53.570;9.984;2023-04-24T08:16:04;4.97;;;2.72;;
65189;SDS011;51777;53.570;9.984;2023-04-24T08:18:29;4.32;;;2.83;;
65189;SDS011;51777;53.570;9.984;2023-04-24T08:20:55;3.97;;;3.20;;
65189;SDS011;51777;53.570;9.984;2023-04-24T08:23:26;3.97;;;3.08;;
65189;SDS011;51777;53.570;9.984;2023-04-24T08:25:52;3.70;;;2.83;;
65189;SDS011;51777;53.570;9.984;2023-04-24T08:28:17;3.05;;;2.78;;
65189;SDS011;51777;53.570;9.984;2023-04-24T08:30:45;5.13;;;3.08;;
65189;SDS011;51777;53.570;9.984;2023-04-24T08:33:19;6.00;;;3.17;;
65189;SDS011;51777;53.570;9.984;2023-04-24T08:35:45;4.35;;;3.03;;
65189;SDS011;51777;53.570;9.984;2023-04-24T08:38:11;3.47;;;2.55;;
65189;SDS011;51777;53.570;9.984;2023-04-24T08:40:36;5.18;;;2.70;;
65189;SDS011;51777;53.570;9.984;2023-04-24T08:43:03;4.15;;;2.38;;
65189;SDS011;51777;53.570;9.984;2023-04-24T08:45:29;2.80;;;2.60;;
65189;SDS011;51777;53.570;9.984;2023-04-24T08:47:54;5.00;;;3.03;;
65189;SDS011;51777;53.570;9.984;2023-04-24T08:50:26;6.20;;;3.10;;
65189;SDS011;51777;53.570;9.984;2023-04-24T08:52:54;3.95;;;3.22;;
65189;SDS011;51777;53.570;9.984;2023-04-24T08:55:22;3.50;;;3.20;;
65189;SDS011;51777;53.570;9.984;2023-04-24T08:57:55;4.38;;;3.60;;
65189;SDS011;51777;53.570;9.984;2023-04-24T09:00:21;4.45;;;3.70;;
65189;SDS011;51777;53.570;9.984;2023-04-24T09:02:49;3.70;;;3.25;;
65189;SDS011;51777;53.570;9.984;2023-04-24T09:05:16;5.28;;;4.38;;
65189;SDS011;51777;53.570;9.984;2023-04-24T09:07:44;5.30;;;3.35;;
65189;SDS011;51777;53.570;9.984;2023-04-24T09:10:15;3.90;;;3.50;;
65189;SDS011;51777;53.570;9.984;2023-04-24T09:12:41;4.50;;;3.65;;
65189;SDS011;51777;53.570;9.984;2023-04-24T09:15:09;3.17;;;2.88;;
65189;SDS011;51777;53.570;9.984;2023-04-24T09:17:35;9.82;;;3.42;;
65189;SDS011;51777;53.570;9.984;2023-04-24T09:20:01;2.67;;;2.33;;
65189;SDS011;51777;53.570;9.984;2023-04-24T09:22:29;3.47;;;3.17;;
65189;SDS011;51777;53.570;9.984;2023-04-24T09:25:05;7.07;;;3.50;;
65189;SDS011;51777;53.570;9.984;2023-04-24T09:27:33;4.47;;;3.30;;
65189;SDS011;51777;53.570;9.984;2023-04-24T09:29:59;7.70;;;3.20;;
65189;SDS011;51777;53.570;9.984;2023-04-24T09:32:25;3.92;;;3.55;;
65189;SDS011;51777;53.570;9.984;2023-04-24T09:35:06;6.95;;;3.67;;
65189;SDS011;51777;53.570;9.984;2023-04-24T09:37:39;6.30;;;3.50;;
65189;SDS011;51777;53.570;9.984;2023-04-24T09:42:44;6.65;;;3.50;;
65189;SDS011;51777;53.570;9.984;2023-04-24T09:45:21;3.70;;;3.00;;
65189;SDS011;51777;53.570;9.984;2023-04-24T09:47:51;5.93;;;3.60;;
65189;SDS011;51777;53.570;9.984;2023-04-24T09:50:18;4.30;;;3.45;;
65189;SDS011;51777;53.570;9.984;2023-04-24T09:52:55;4.30;;;3.85;;
65189;SDS011;51777;53.570;9.984;2023-04-24T09:55:26;4.82;;;3.70;;
65189;SDS011;51777;53.570;9.984;2023-04-24T09:57:53;7.10;;;3.88;;
65189;SDS011;51777;53.570;9.984;2023-04-24T10:00:23;3.92;;;3.53;;
65189;SDS011;51777;53.570;9.984;2023-04-24T10:03:00;4.05;;;3.60;;
65189;SDS011;51777;53.570;9.984;2023-04-24T10:05:27;6.05;;;4.38;;
65189;SDS011;51777;53.570;9.984;2023-04-24T10:08:00;3.92;;;3.15;;
65189;SDS011;51777;53.570;9.984;2023-04-24T10:10:37;8.23;;;4.13;;
65189;SDS011;51777;53.570;9.984;2023-04-24T10:13:04;7.90;;;4.88;;
65189;SDS011;51777;53.570;9.984;2023-04-24T10:15:30;5.95;;;4.47;;
65189;SDS011;51777;53.570;9.984;2023-04-24T10:20:26;3.85;;;3.35;;
65189;SDS011;51777;53.570;9.984;2023-04-24T10:22:54;12.85;;;5.60;;
65189;SDS011;51777;53.570;9.984;2023-04-24T10:25:24;8.88;;;5.78;;
65189;SDS011;51777;53.570;9.984;2023-04-24T10:27:52;9.50;;;6.30;;
65189;SDS011;51777;53.570;9.984;2023-04-24T10:30:22;8.30;;;6.40;;
65189;SDS011;51777;53.570;9.984;2023-04-24T10:32:48;7.32;;;5.82;;
65189;SDS011;51777;53.570;9.984;2023-04-24T10:35:13;10.50;;;6.25;;
65189;SDS011;51777;53.570;9.984;2023-04-24T10:37:43;11.50;;;6.57;;
65189;SDS011;51777;53.570;9.984;2023-04-24T10:40:11;8.57;;;5.70;;
65189;SDS011;51777;53.570;9.984;2023-04-24T10:42:40;10.13;;;6.30;;
65189;SDS011;51777;53.570;9.984;2023-04-24T10:45:15;7.80;;;6.32;;
65189;SDS011;51777;53.570;9.984;2023-04-24T10:47:43;14.07;;;7.13;;
65189;SDS011;51777;53.570;9.984;2023-04-24T10:50:16;9.73;;;6.88;;
65189;SDS011;51777;53.570;9.984;2023-04-24T10:52:48;11.35;;;6.68;;
65189;SDS011;51777;53.570;9.984;2023-04-24T10:58:09;8.77;;;6.80;;
65189;SDS011;51777;53.570;9.984;2023-04-24T11:00:39;9.00;;;7.03;;
65189;SDS011;51777;53.570;9.984;2023-04-24T11:03:22;12.20;;;7.25;;
65189;SDS011;51777;53.570;9.984;2023-04-24T11:06:05;9.25;;;6.88;;
65189;SDS011;51777;53.570;9.984;2023-04-24T11:11:11;9.15;;;6.72;;
65189;SDS011;51777;53.570;9.984;2023-04-24T11:21:48;8.43;;;6.60;;
65189;SDS011;51777;53.570;9.984;2023-04-24T11:24:24;5.80;;;4.38;;
65189;SDS011;51777;53.570;9.984;2023-04-24T11:26:51;9.00;;;5.70;;
65189;SDS011;51777;53.570;9.984;2023-04-24T11:29:19;9.73;;;6.22;;
65189;SDS011;51777;53.570;9.984;2023-04-24T11:31:46;9.63;;;6.20;;
65189;SDS011;51777;53.570;9.984;2023-04-24T11:34:15;6.32;;;5.18;;
65189;SDS011;51777;53.570;9.984;2023-04-24T11:36:47;9.52;;;6.00;;
65189;SDS011;51777;53.570;9.984;2023-04-24T11:39:13;9.45;;;6.20;;
65189;SDS011;51777;53.570;9.984;2023-04-24T11:41:39;10.30;;;6.78;;
65189;SDS011;51777;53.570;9.984;2023-04-24T11:44:06;8.10;;;6.55;;
65189;SDS011;51777;53.570;9.984;2023-04-24T11:46:33;9.45;;;6.45;;
65189;SDS011;51777;53.570;9.984;2023-04-24T11:48:58;8.20;;;5.95;;
65189;SDS011;51777;53.570;9.984;2023-04-24T11:51:25;5.07;;;4.00;;
65189;SDS011;51777;53.570;9.984;2023-04-24T11:53:52;9.23;;;5.35;;
65189;SDS011;51777;53.570;9.984;2023-04-24T11:56:21;8.98;;;6.20;;
65189;SDS011;51777;53.570;9.984;2023-04-24T11:58:47;8.02;;;5.50;;
65189;SDS011;51777;53.570;9.984;2023-04-24T12:01:13;5.40;;;4.60;;
65189;SDS011;51777;53.570;9.984;2023-04-24T12:03:39;5.38;;;4.70;;
65189;SDS011;51777;53.570;9.984;2023-04-24T12:06:09;10.90;;;5.20;;
65189;SDS011;51777;53.570;9.984;2023-04-24T12:08:35;6.78;;;5.00;;
65189;SDS011;51777;53.570;9.984;2023-04-24T12:11:02;9.80;;;5.20;;
65189;SDS011;51777;53.570;9.984;2023-04-24T12:13:32;7.38;;;5.13;;
65189;SDS011;51777;53.570;9.984;2023-04-24T12:15:58;6.57;;;4.20;;
65189;SDS011;51777;53.570;9.984;2023-04-24T12:18:24;7.15;;;5.10;;
65189;SDS011;51777;53.570;9.984;2023-04-24T12:20:50;8.18;;;4.50;;
65189;SDS011;51777;53.570;9.984;2023-04-24T12:23:15;7.30;;;4.90;;
65189;SDS011;51777;53.570;9.984;2023-04-24T12:25:42;8.35;;;4.80;;
65189;SDS011;51777;53.570;9.984;2023-04-24T12:28:12;6.38;;;4.35;;
65189;SDS011;51777;53.570;9.984;2023-04-24T12:30:48;5.10;;;4.60;;
65189;SDS011;51777;53.570;9.984;2023-04-24T12:33:21;4.88;;;4.10;;
65189;SDS011;51777;53.570;9.984;2023-04-24T12:35:47;4.93;;;3.53;;
65189;SDS011;51777;53.570;9.984;2023-04-24T12:38:15;5.47;;;4.10;;
65189;SDS011;51777;53.570;9.984;2023-04-24T12:40:41;4.40;;;3.92;;
65189;SDS011;51777;53.570;9.984;2023-04-24T12:43:17;4.07;;;3.65;;
65189;SDS011;51777;53.570;9.984;2023-04-24T12:45:44;5.70;;;4.22;;
65189;SDS011;51777;53.570;9.984;2023-04-24T12:48:10;6.60;;;4.85;;
65189;SDS011;51777;53.570;9.984;2023-04-24T12:50:36;6.97;;;5.07;;
65189;SDS011;51777;53.570;9.984;2023-04-24T12:53:02;9.25;;;5.30;;
65189;SDS011;51777;53.570;9.984;2023-04-24T12:55:28;6.13;;;4.78;;
65189;SDS011;51777;53.570;9.984;2023-04-24T12:57:53;6.40;;;5.10;;
65189;SDS011;51777;53.570;9.984;2023-04-24T13:02:47;5.90;;;4.28;;
65189;SDS011;51777;53.570;9.984;2023-04-24T13:05:13;5.97;;;4.93;;
65189;SDS011;51777;53.570;9.984;2023-04-24T13:07:38;4.57;;;2.60;;
65189;SDS011;51777;53.570;9.984;2023-04-24T13:10:05;5.40;;;3.83;;
65189;SDS011;51777;53.570;9.984;2023-04-24T13:12:30;4.43;;;3.95;;
65189;SDS011;51777;53.570;9.984;2023-04-24T13:14:59;6.35;;;4.90;;
65189;SDS011;51777;53.570;9.984;2023-04-24T13:17:26;5.93;;;4.70;;
65189;SDS011;51777;53.570;9.984;2023-04-24T13:19:53;5.38;;;4.43;;
65189;SDS011;51777;53.570;9.984;2023-04-24T13:22:20;5.38;;;4.50;;
65189;SDS011;51777;53.570;9.984;2023-04-24T13:24:46;6.13;;;4.28;;
65189;SDS011;51777;53.570;9.984;2023-04-24T13:27:15;5.70;;;4.00;;
65189;SDS011;51777;53.570;9.984;2023-04-24T13:29:40;8.60;;;4.22;;
65189;SDS011;51777;53.570;9.984;2023-04-24T13:32:08;6.07;;;4.22;;
65189;SDS011;51777;53.570;9.984;2023-04-24T13:34:34;6.35;;;4.70;;
65189;SDS011;51777;53.570;9.984;2023-04-24T13:37:00;4.68;;;4.15;;
65189;SDS011;51777;53.570;9.984;2023-04-24T13:39:26;5.88;;;4.32;;
65189;SDS011;51777;53.570;9.984;2023-04-24T13:41:51;4.57;;;4.18;;
65189;SDS011;51777;53.570;9.984;2023-04-24T13:44:18;5.90;;;4.10;;
65189;SDS011;51777;53.570;9.984;2023-04-24T13:46:45;6.68;;;3.50;;
65189;SDS011;51777;53.570;9.984;2023-04-24T13:49:12;6.78;;;4.80;;
65189;SDS011;51777;53.570;9.984;2023-04-24T13:51:39;3.50;;;2.78;;
65189;SDS011;51777;53.570;9.984;2023-04-24T13:54:10;3.15;;;2.88;;
65189;SDS011;51777;53.570;9.984;2023-04-24T13:56:36;5.78;;;3.78;;
65189;SDS011;51777;53.570;9.984;2023-04-24T13:59:01;6.35;;;3.55;;
65189;SDS011;51777;53.570;9.984;2023-04-24T14:01:27;4.95;;;3.55;;
65189;SDS011;51777;53.570;9.984;2023-04-24T14:03:52;7.25;;;3.67;;
65189;SDS011;51777;53.570;9.984;2023-04-24T14:06:19;3.80;;;3.50;;
65189;SDS011;51777;53.570;9.984;2023-04-24T14:08:45;5.07;;;3.53;;
65189;SDS011;51777;53.570;9.984;2023-04-24T14:11:11;3.83;;;3.53;;
65189;SDS011;51777;53.570;9.984;2023-04-24T14:13:43;4.18;;;3.70;;
65189;SDS011;51777;53.570;9.984;2023-04-24T14:16:10;4.22;;;3.45;;
65189;SDS011;51777;53.570;9.984;2023-04-24T14:18:39;5.03;;;3.60;;
65189;SDS011;51777;53.570;9.984;2023-04-24T14:21:05;4.40;;;3.65;;
65189;SDS011;51777;53.570;9.984;2023-04-24T14:23:35;4.15;;;3.75;;
65189;SDS011;51777;53.570;9.984;2023-04-24T14:29:00;3.63;;;3.30;;
65189;SDS011;51777;53.570;9.984;2023-04-24T14:32:00;4.18;;;2.88;;
65189;SDS011;51777;53.570;9.984;2023-04-24T14:34:25;3.80;;;3.35;;
65189;SDS011;51777;53.570;9.984;2023-04-24T14:36:52;3.13;;;2.53;;
65189;SDS011;51777;53.570;9.984;2023-04-24T14:39:20;4.32;;;3.63;;
65189;SDS011;51777;53.570;9.984;2023-04-24T14:41:49;3.72;;;3.33;;
65189;SDS011;51777;53.570;9.984;2023-04-24T14:44:15;4.45;;;3.78;;
65189;SDS011;51777;53.570;9.984;2023-04-24T14:46:43;2.67;;;2.45;;
65189;SDS011;51777;53.570;9.984;2023-04-24T14:49:09;3.83;;;3.33;;
65189;SDS011;51777;53.570;9.984;2023-04-24T14:51:37;4.22;;;3.25;;
65189;SDS011;51777;53.570;9.984;2023-04-24T14:54:03;6.80;;;3.95;;
65189;SDS011;51777;53.570;9.984;2023-04-24T14:56:29;3.25;;;2.90;;
65189;SDS011;51777;53.570;9.984;2023-04-24T14:58:57;3.13;;;2.38;;
65189;SDS011;51777;53.570;9.984;2023-04-24T15:01:32;8.90;;;6.05;;
65189;SDS011;51777;53.570;9.984;2023-04-24T15:04:17;7.10;;;4.85;;
65189;SDS011;51777;53.570;9.984;2023-04-24T15:06:45;9.75;;;5.55;;
65189;SDS011;51777;53.570;9.984;2023-04-24T15:09:15;4.35;;;3.03;;